Time;durP1;ratioP1;P1;durP2;ratioP2;P2;SDS_P1;SDS_P2;PMS_P1;PMS_P2;Temp;Humidity;BMP_temperature;BMP_pressure;BME280_temperature;BME280_humidity;BME280_pressure;Samples;Min_cycle;Max_cycle;Signal;HPM_P1;HPM_P2
2021/10/02 00:45:18;;;;;;;7.62;4.70;;;;;;;;;;143735;566;46918;-86
2021/10/02 00:47:47;;;;;;;16.98;5.45;;;;;;;;;;143737;603;46018;-87
2021/10/02 00:50:16;;;;;;;10.77;4.95;;;;;;;;;;143737;571;46012;-86
2021/10/02 00:53:01;;;;;;;7.90;4.93;;;;;;;;;;143733;571;47020;-87
2021/10/02 00:55:35;;;;;;;9.90;4.47;;;;;;;;;;143734;569;46919;-87
2021/10/02 00:58:07;;;;;;;10.45;4.82;;;;;;;;;;143737;599;46018;-87
2021/10/02 01:00:37;;;;;;;8.43;4.20;;;;;;;;;;143736;586;46012;-86
2021/10/02 01:03:35;;;;;;;8.30;4.68;;;;;;;;;;143734;569;46046;-85
2021/10/02 01:06:46;;;;;;;9.88;4.57;;;;;;;;;;143734;583;46022;-86
2021/10/02 01:10:05;;;;;;;8.40;4.47;;;;;;;;;;143739;626;46018;-86
2021/10/02 01:12:46;;;;;;;15.95;5.00;;;;;;;;;;143736;574;47022;-88
2021/10/02 01:15:22;;;;;;;9.20;4.25;;;;;;;;;;143735;591;46017;-86
2021/10/02 01:18:04;;;;;;;13.73;5.28;;;;;;;;;;143734;622;46012;-87
2021/10/02 01:21:02;;;;;;;9.77;4.93;;;;;;;;;;143737;592;46018;-88
2021/10/02 01:24:35;;;;;;;7.05;4.18;;;;;;;;;;143739;643;46023;-86
2021/10/02 01:27:19;;;;;;;;;;;;;;;;;;143740;969;46020;-87
2021/10/02 01:29:58;;;;;;;13.38;5.30;;;;;;;;;;143746;577;46013;-87
2021/10/02 01:32:41;;;;;;;11.00;4.22;;;;;;;;;;143736;579;46018;-87
2021/10/02 01:35:40;;;;;;;16.15;4.78;;;;;;;;;;143737;569;46010;-86
2021/10/02 01:49:23;;;;;;;7.62;4.90;;;;;;;;;;143736;617;46018;-86
2021/10/02 01:51:53;;;;;;;9.77;4.80;;;;;;;;;;143737;580;46022;-87
2021/10/02 01:54:25;;;;;;;18.55;4.95;;;;;;;;;;143736;585;47018;-86
2021/10/02 01:56:57;;;;;;;14.27;5.17;;;;;;;;;;143737;683;46010;-86
2021/10/02 01:59:36;;;;;;;11.88;6.72;;;;;;;;;;143734;684;47018;-88
2021/10/02 02:02:12;;;;;;;11.38;5.07;;;;;;;;;;143735;584;47023;-86
2021/10/02 02:04:46;;;;;;;10.13;5.78;;;;;;;;;;143737;569;46018;-86
2021/10/02 02:07:21;;;;;;;16.17;4.90;;;;;;;;;;143737;681;46011;-86
2021/10/02 02:09:59;;;;;;;10.60;4.85;;;;;;;;;;143734;612;46021;-87
2021/10/02 02:12:33;;;;;;;11.23;4.57;;;;;;;;;;143735;598;46010;-86
2021/10/02 02:15:21;;;;;;;10.80;4.37;;;;;;;;;;143736;600;47018;-86
2021/10/02 02:18:01;;;;;;;10.02;4.20;;;;;;;;;;143737;667;46010;-87
2021/10/02 02:20:47;;;;;;;12.93;4.65;;;;;;;;;;143735;574;46020;-89
2021/10/02 02:23:17;;;;;;;8.30;4.35;;;;;;;;;;143736;595;46023;-88
2021/10/02 02:25:48;;;;;;;13.62;5.15;;;;;;;;;;143735;569;46018;-87
2021/10/02 02:28:18;;;;;;;10.52;4.65;;;;;;;;;;143737;571;46010;-88
2021/10/02 02:30:55;;;;;;;6.32;4.57;;;;;;;;;;143733;582;47018;-88
2021/10/02 02:33:27;;;;;;;11.38;4.95;;;;;;;;;;143734;610;46010;-85
2021/10/02 02:36:01;;;;;;;13.98;4.40;;;;;;;;;;143734;577;46018;-87
2021/10/02 02:38:35;;;;;;;13.13;5.28;;;;;;;;;;143736;648;46020;-87
2021/10/02 02:41:19;;;;;;;7.75;4.82;;;;;;;;;;143735;584;46012;-86
2021/10/02 02:43:49;;;;;;;13.45;4.85;;;;;;;;;;143735;626;46921;-85
2021/10/02 02:46:38;;;;;;;11.50;5.25;;;;;;;;;;143736;620;47019;-87
2021/10/02 02:49:57;;;;;;;11.27;4.62;;;;;;;;;;143739;598;46012;-87
2021/10/02 02:53:01;;;;;;;12.90;4.03;;;;;;;;;;143733;601;47020;-86
2021/10/02 02:55:39;;;;;;;6.57;4.18;;;;;;;;;;143734;585;47022;-86
2021/10/02 02:58:18;;;;;;;10.32;4.68;;;;;;;;;;143735;579;47018;-87
2021/10/02 03:01:00;;;;;;;9.40;3.47;;;;;;;;;;143735;567;46023;-87
2021/10/02 03:03:35;;;;;;;9.85;3.30;;;;;;;;;;143734;623;47018;-86
2021/10/02 03:06:12;;;;;;;9.07;3.78;;;;;;;;;;143737;585;46022;-87
2021/10/02 03:08:45;;;;;;;8.93;3.60;;;;;;;;;;143733;598;47019;-86
2021/10/02 03:11:28;;;;;;;8.82;4.25;;;;;;;;;;143735;605;46010;-86
2021/10/02 03:14:02;;;;;;;11.05;3.65;;;;;;;;;;143737;607;47020;-88
2021/10/02 03:16:44;;;;;;;8.48;3.67;;;;;;;;;;143734;658;46012;-89
2021/10/02 03:19:17;;;;;;;9.35;4.03;;;;;;;;;;143731;579;47018;-88
2021/10/02 03:21:45;;;;;;;;;;;;;;;;;;143739;963;47039;-87
2021/10/02 03:24:22;;;;;;;12.37;5.20;;;;;;;;;;143746;614;46021;-86
2021/10/02 03:26:52;;;;;;;8.35;4.18;;;;;;;;;;143733;576;47012;-86
2021/10/02 03:29:21;;;;;;;9.30;4.62;;;;;;;;;;143737;655;46019;-88
2021/10/02 03:32:00;;;;;;;13.98;4.75;;;;;;;;;;143736;610;46012;-87
2021/10/02 03:34:47;;;;;;;9.65;4.22;;;;;;;;;;143733;592;47018;-88
2021/10/02 03:37:13;;;;;;;14.70;4.50;;;;;;;;;;143738;589;46045;-86
2021/10/02 03:39:40;;;;;;;7.30;4.35;;;;;;;;;;143735;729;47018;-86
2021/10/02 03:42:18;;;;;;;7.45;4.47;;;;;;;;;;143734;594;47022;-88
2021/10/02 03:44:47;;;;;;;13.38;4.22;;;;;;;;;;143736;569;47020;-86
2021/10/02 03:47:20;;;;;;;9.50;4.07;;;;;;;;;;143734;575;46022;-87
2021/10/02 03:49:47;;;;;;;10.23;4.72;;;;;;;;;;143734;563;47018;-86
2021/10/02 03:52:15;;;;;;;8.73;4.10;;;;;;;;;;143735;564;46013;-88
2021/10/02 03:54:42;;;;;;;7.82;3.60;;;;;;;;;;143733;571;46020;-85
2021/10/02 03:57:10;;;;;;;9.80;4.32;;;;;;;;;;143735;619;46012;-86
2021/10/02 03:59:38;;;;;;;10.27;3.90;;;;;;;;;;143736;629;47019;-86
2021/10/02 04:02:06;;;;;;;10.32;3.67;;;;;;;;;;143739;587;46022;-87
2021/10/02 04:04:35;;;;;;;8.55;4.20;;;;;;;;;;143733;616;47020;-88
2021/10/02 04:07:03;;;;;;;7.90;3.62;;;;;;;;;;143734;671;46013;-87
2021/10/02 04:09:30;;;;;;;18.33;4.05;;;;;;;;;;143735;613;47018;-87
2021/10/02 04:12:00;;;;;;;7.03;3.30;;;;;;;;;;143739;573;46012;-88
2021/10/02 04:14:27;;;;;;;9.27;3.62;;;;;;;;;;143733;572;47020;-87
2021/10/02 04:16:54;;;;;;;10.10;4.28;;;;;;;;;;143735;571;46012;-85
2021/10/02 04:19:21;;;;;;;8.73;3.87;;;;;;;;;;143733;580;47018;-86
2021/10/02 04:21:48;;;;;;;8.25;4.07;;;;;;;;;;143737;574;46021;-87
2021/10/02 04:24:14;;;;;;;8.30;3.60;;;;;;;;;;143736;577;46021;-86
2021/10/02 04:26:43;;;;;;;8.60;3.20;;;;;;;;;;143734;630;46012;-86
2021/10/02 04:29:10;;;;;;;4.18;2.85;;;;;;;;;;143738;625;46018;-87
2021/10/02 04:31:37;;;;;;;10.38;3.90;;;;;;;;;;143736;589;47021;-88
2021/10/02 04:34:05;;;;;;;7.53;3.70;;;;;;;;;;143735;642;46018;-86
2021/10/02 04:36:33;;;;;;;10.23;3.97;;;;;;;;;;143732;565;46921;-87
2021/10/02 04:39:01;;;;;;;8.30;4.00;;;;;;;;;;143736;587;46018;-84
2021/10/02 04:41:28;;;;;;;9.00;3.40;;;;;;;;;;143734;573;46012;-87
2021/10/02 04:43:56;;;;;;;10.10;4.05;;;;;;;;;;143732;585;47019;-86
2021/10/02 04:46:24;;;;;;;6.87;3.30;;;;;;;;;;143731;644;46012;-88
2021/10/02 04:48:52;;;;;;;7.72;3.78;;;;;;;;;;143736;565;46018;-88
2021/10/02 04:51:19;;;;;;;12.27;3.30;;;;;;;;;;143735;565;46012;-87
2021/10/02 04:53:47;;;;;;;5.50;3.47;;;;;;;;;;143734;601;47018;-87
2021/10/02 04:56:16;;;;;;;7.85;3.90;;;;;;;;;;143733;657;46012;-89
2021/10/02 04:58:44;;;;;;;10.07;4.12;;;;;;;;;;143733;623;47018;-87
2021/10/02 05:01:21;;;;;;;7.37;4.10;;;;;;;;;;143735;596;46012;-87
2021/10/02 05:03:50;;;;;;;11.43;5.20;;;;;;;;;;143734;564;46014;-89
2021/10/02 05:06:18;;;;;;;18.02;3.22;;;;;;;;;;143734;592;46012;-87
2021/10/02 05:08:48;;;;;;;7.87;3.37;;;;;;;;;;143734;569;46018;-87
2021/10/02 05:11:15;;;;;;;13.90;4.28;;;;;;;;;;143736;663;46012;-84
2021/10/02 05:13:42;;;;;;;10.82;3.85;;;;;;;;;;143738;589;46020;-87
2021/10/02 05:16:09;;;;;;;7.40;3.85;;;;;;;;;;143732;569;47041;-87
2021/10/02 05:18:36;;;;;;;8.02;3.70;;;;;;;;;;143736;619;46014;-86
2021/10/02 05:21:03;;;;;;;7.68;3.30;;;;;;;;;;143733;619;47012;-86
2021/10/02 05:23:30;;;;;;;10.10;3.80;;;;;;;;;;143731;569;47021;-86
2021/10/02 05:25:58;;;;;;;8.07;4.12;;;;;;;;;;143733;579;46022;-86
2021/10/02 05:28:25;;;;;;;10.73;3.45;;;;;;;;;;143734;589;46015;-86
2021/10/02 05:30:55;;;;;;;10.52;3.75;;;;;;;;;;143734;577;46020;-87
2021/10/02 05:33:22;;;;;;;5.03;3.00;;;;;;;;;;143732;564;46020;-87
2021/10/02 05:35:59;;;;;;;5.62;2.50;;;;;;;;;;143731;602;46013;-89
2021/10/02 05:38:27;;;;;;;4.18;2.40;;;;;;;;;;143732;618;46018;-86
2021/10/02 05:40:56;;;;;;;6.18;2.75;;;;;;;;;;143734;614;46012;-88
2021/10/02 05:43:23;;;;;;;7.03;3.80;;;;;;;;;;143731;576;47020;-87
2021/10/02 05:45:56;;;;;;;11.15;4.25;;;;;;;;;;143733;595;46022;-88
2021/10/02 05:48:26;;;;;;;11.43;3.53;;;;;;;;;;143733;609;47018;-88
2021/10/02 05:50:53;;;;;;;8.70;3.03;;;;;;;;;;143734;610;46021;-86
2021/10/02 05:53:23;;;;;;;5.68;2.72;;;;;;;;;;143731;636;47018;-89
2021/10/02 05:55:50;;;;;;;7.20;3.28;;;;;;;;;;143733;565;46012;-88
2021/10/02 05:58:18;;;;;;;9.32;3.10;;;;;;;;;;143730;594;47018;-88
2021/10/02 06:00:45;;;;;;;12.75;3.83;;;;;;;;;;143735;594;46012;-88
2021/10/02 06:03:13;;;;;;;11.05;4.70;;;;;;;;;;143733;585;47018;-90
2021/10/02 06:05:40;;;;;;;12.52;3.62;;;;;;;;;;143731;570;46012;-89
2021/10/02 06:08:07;;;;;;;11.30;4.32;;;;;;;;;;143733;588;47019;-89
2021/10/02 06:10:38;;;;;;;8.30;3.45;;;;;;;;;;143736;588;46020;-88
2021/10/02 06:13:05;;;;;;;11.10;3.58;;;;;;;;;;143730;619;47020;-88
2021/10/02 06:15:33;;;;;;;15.43;5.68;;;;;;;;;;143732;584;46012;-89
2021/10/02 06:18:06;;;;;;;11.07;5.03;;;;;;;;;;143732;607;47018;-89
2021/10/02 06:20:33;;;;;;;10.15;3.67;;;;;;;;;;143735;571;46021;-89
2021/10/02 06:23:03;;;;;;;10.77;3.90;;;;;;;;;;143731;576;47018;-88
2021/10/02 06:25:32;;;;;;;9.10;3.42;;;;;;;;;;143731;569;46012;-90
2021/10/02 06:27:59;;;;;;;12.18;4.40;;;;;;;;;;143733;612;46019;-89
2021/10/02 06:30:28;;;;;;;15.45;8.38;;;;;;;;;;143735;720;46020;-88
2021/10/02 06:32:54;;;;;;;10.30;5.68;;;;;;;;;;143735;589;46020;-89
2021/10/02 06:35:21;;;;;;;11.88;4.15;;;;;;;;;;143732;555;46012;-88
2021/10/02 06:37:48;;;;;;;15.50;4.05;;;;;;;;;;143735;606;46018;-89
2021/10/02 06:40:19;;;;;;;9.00;3.55;;;;;;;;;;143734;600;46020;-90
2021/10/02 06:42:46;;;;;;;10.23;3.53;;;;;;;;;;143732;582;47019;-88
2021/10/02 06:45:13;;;;;;;10.55;4.40;;;;;;;;;;143734;594;46012;-87
2021/10/02 06:47:40;;;;;;;13.70;3.72;;;;;;;;;;143733;569;46016;-89
2021/10/02 06:50:08;;;;;;;8.93;3.83;;;;;;;;;;143736;574;46021;-88
2021/10/02 06:52:36;;;;;;;10.90;4.10;;;;;;;;;;143734;632;46021;-91
2021/10/02 06:55:14;;;;;;;7.57;3.95;;;;;;;;;;143737;612;45921;-89
2021/10/02 06:58:07;;;;;;;12.07;3.55;;;;;;;;;;143738;614;45019;-88
2021/10/02 07:00:57;;;;;;;9.98;3.75;;;;;;;;;;143739;610;45022;-84
2021/10/02 07:03:32;;;;;;;9.43;3.67;;;;;;;;;;143735;590;46018;-86
2021/10/02 07:06:36;;;;;;;11.30;3.95;;;;;;;;;;143737;583;45023;-82
2021/10/02 07:09:04;;;;;;;6.70;3.12;;;;;;;;;;143731;598;46018;-87
2021/10/02 07:11:30;;;;;;;5.50;3.50;;;;;;;;;;143737;602;45033;-87
2021/10/02 07:14:00;;;;;;;9.02;3.42;;;;;;;;;;143733;668;46021;-86
2021/10/02 07:16:27;;;;;;;9.18;3.37;;;;;;;;;;143732;569;46022;-88
2021/10/02 07:18:54;;;;;;;6.35;3.00;;;;;;;;;;143732;620;46018;-87
2021/10/02 07:21:21;;;;;;;13.00;3.55;;;;;;;;;;143732;657;47012;-88
2021/10/02 07:23:49;;;;;;;9.25;4.20;;;;;;;;;;143730;595;46014;-87
2021/10/02 07:26:16;;;;;;;8.20;2.97;;;;;;;;;;143735;565;46014;-88
2021/10/02 07:28:43;;;;;;;8.35;3.87;;;;;;;;;;143734;651;47019;-88
2021/10/02 07:31:10;;;;;;;7.57;3.47;;;;;;;;;;143734;658;46022;-87
2021/10/02 07:33:38;;;;;;;10.77;3.62;;;;;;;;;;143733;602;46014;-88
2021/10/02 07:36:07;;;;;;;9.07;3.72;;;;;;;;;;143730;613;46013;-87
2021/10/02 07:38:49;;;;;;;10.32;3.80;;;;;;;;;;143733;564;46018;-87
2021/10/02 07:41:22;;;;;;;6.55;3.15;;;;;;;;;;143737;610;46012;-89
2021/10/02 07:44:06;;;;;;;6.53;3.60;;;;;;;;;;143733;639;46021;-88
2021/10/02 07:46:39;;;;;;;5.05;3.53;;;;;;;;;;143732;565;46012;-89
2021/10/02 07:49:09;;;;;;;6.65;3.70;;;;;;;;;;143732;607;46018;-86
2021/10/02 07:51:39;;;;;;;8.10;4.25;;;;;;;;;;143736;594;46013;-87
2021/10/02 07:54:07;;;;;;;4.95;3.20;;;;;;;;;;143732;582;47018;-86
2021/10/02 07:56:38;;;;;;;14.23;3.60;;;;;;;;;;143732;608;46012;-86
2021/10/02 07:59:06;;;;;;;6.95;3.00;;;;;;;;;;143735;625;46019;-86
2021/10/02 08:01:36;;;;;;;7.53;3.03;;;;;;;;;;143734;597;46012;-85
2021/10/02 08:04:09;;;;;;;7.12;2.90;;;;;;;;;;143730;616;46020;-85
2021/10/02 08:06:37;;;;;;;7.82;3.78;;;;;;;;;;143733;573;46023;-88
2021/10/02 08:09:06;;;;;;;19.95;4.07;;;;;;;;;;143733;565;47018;-86
2021/10/02 08:11:33;;;;;;;10.15;3.62;;;;;;;;;;143735;623;46012;-86
2021/10/02 08:14:01;;;;;;;12.52;3.55;;;;;;;;;;143732;587;47021;-86
2021/10/02 08:16:31;;;;;;;6.78;3.03;;;;;;;;;;143734;608;46012;-85
2021/10/02 08:19:03;;;;;;;11.55;3.35;;;;;;;;;;143733;589;46018;-86
2021/10/02 08:21:30;;;;;;;10.52;3.28;;;;;;;;;;143736;596;46012;-86
2021/10/02 08:24:03;;;;;;;5.45;2.80;;;;;;;;;;143731;647;47018;-85
2021/10/02 08:26:32;;;;;;;7.65;2.90;;;;;;;;;;143733;571;46012;-87
2021/10/02 08:29:02;;;;;;;8.45;3.53;;;;;;;;;;143732;582;47018;-86
2021/10/02 08:31:29;;;;;;;10.85;3.97;;;;;;;;;;143734;605;46012;-86
2021/10/02 08:33:56;;;;;;;7.03;3.50;;;;;;;;;;143731;672;47020;-85
2021/10/02 08:36:25;;;;;;;6.40;3.53;;;;;;;;;;143733;569;46918;-85
2021/10/02 08:38:51;;;;;;;5.22;3.08;;;;;;;;;;143733;566;46018;-85
2021/10/02 08:41:20;;;;;;;7.70;3.25;;;;;;;;;;143735;586;47022;-87
2021/10/02 08:43:49;;;;;;;4.55;3.10;;;;;;;;;;143731;641;47021;-85
2021/10/02 08:46:17;;;;;;;10.30;3.53;;;;;;;;;;143733;576;46012;-86
2021/10/02 08:49:14;;;;;;;4.80;3.42;;;;;;;;;;143733;572;47018;-85
2021/10/02 08:51:46;;;;;;;5.30;3.70;;;;;;;;;;143734;589;46022;-85
2021/10/02 08:54:13;;;;;;;8.68;3.30;;;;;;;;;;143730;577;47018;-86
2021/10/02 08:56:46;;;;;;;12.60;3.53;;;;;;;;;;143731;638;46022;-86
2021/10/02 08:59:16;;;;;;;;;;;;;;;;;;143740;976;46019;-85
2021/10/02 09:01:43;;;;;;;6.70;4.15;;;;;;;;;;143746;577;46020;-86
2021/10/02 09:04:12;;;;;;;6.07;3.78;;;;;;;;;;143732;622;46020;-86
2021/10/02 09:06:41;;;;;;;6.75;4.43;;;;;;;;;;143732;585;46023;-86
2021/10/02 09:09:09;;;;;;;11.48;3.60;;;;;;;;;;143732;585;47018;-85
2021/10/02 09:11:42;;;;;;;6.10;3.37;;;;;;;;;;143732;586;46021;-87
2021/10/02 09:14:11;;;;;;;4.28;3.08;;;;;;;;;;143731;589;47021;-84
2021/10/02 09:16:43;;;;;;;5.90;3.92;;;;;;;;;;143733;587;46022;-86
2021/10/02 09:19:18;;;;;;;12.93;3.92;;;;;;;;;;143733;593;46038;-84
2021/10/02 09:22:13;;;;;;;8.30;3.42;;;;;;;;;;143736;589;46023;-87
2021/10/02 09:24:47;;;;;;;8.52;3.60;;;;;;;;;;143734;567;46012;-85
2021/10/02 09:27:36;;;;;;;6.78;4.68;;;;;;;;;;143731;644;46011;-86
2021/10/02 09:30:19;;;;;;;14.15;3.83;;;;;;;;;;143733;583;47018;-85
2021/10/02 09:32:46;;;;;;;15.23;4.70;;;;;;;;;;143734;569;46010;-84
2021/10/02 09:35:18;;;;;;;7.75;4.35;;;;;;;;;;143733;637;46021;-84
2021/10/02 09:37:47;;;;;;;;;;;;;;;;;;143734;980;46012;-84
2021/10/02 09:40:19;;;;;;;6.95;3.83;;;;;;;;;;143741;590;47018;-86
2021/10/02 09:42:49;;;;;;;5.70;3.70;;;;;;;;;;143734;565;46013;-86
2021/10/02 09:45:22;;;;;;;7.93;4.47;;;;;;;;;;143732;590;46042;-84
2021/10/02 09:47:55;;;;;;;9.60;4.45;;;;;;;;;;143732;606;46031;-84
2021/10/02 09:50:25;;;;;;;;;;;;;;;;;;143740;970;46019;-83
2021/10/02 09:52:55;;;;;;;6.95;5.03;;;;;;;;;;143747;585;46010;-85
2021/10/02 09:55:30;;;;;;;11.40;4.72;;;;;;;;;;143733;580;46020;-87
2021/10/02 09:58:09;;;;;;;7.75;5.32;;;;;;;;;;143734;569;46010;-87
2021/10/02 10:00:50;;;;;;;7.25;4.82;;;;;;;;;;143733;582;46018;-88
2021/10/02 10:03:19;;;;;;;10.25;5.57;;;;;;;;;;143735;608;46010;-87
2021/10/02 10:05:56;;;;;;;9.57;5.28;;;;;;;;;;143734;594;46021;-87
2021/10/02 10:08:32;;;;;;;10.40;6.12;;;;;;;;;;143732;610;46010;-87
2021/10/02 10:11:10;;;;;;;14.77;5.35;;;;;;;;;;143734;567;46018;-85
2021/10/02 10:13:38;;;;;;;6.05;4.57;;;;;;;;;;143735;564;46044;-87
2021/10/02 10:16:13;;;;;;;6.20;4.87;;;;;;;;;;143731;569;47020;-86
2021/10/02 10:18:50;;;;;;;14.60;5.78;;;;;;;;;;143732;600;46010;-86
2021/10/02 10:21:22;;;;;;;7.53;4.35;;;;;;;;;;143734;585;46019;-86
2021/10/02 10:23:49;;;;;;;5.78;3.97;;;;;;;;;;143733;646;46010;-87
2021/10/02 10:26:19;;;;;;;6.72;4.50;;;;;;;;;;143733;591;46020;-87
2021/10/02 10:28:49;;;;;;;10.90;4.43;;;;;;;;;;143733;621;46010;-88
2021/10/02 10:31:22;;;;;;;9.45;3.58;;;;;;;;;;143732;585;47018;-86
2021/10/02 10:33:54;;;;;;;7.43;4.17;;;;;;;;;;143734;600;46013;-86
2021/10/02 10:36:28;;;;;;;6.53;4.97;;;;;;;;;;143731;587;47021;-88
2021/10/02 10:38:57;;;;;;;15.50;5.07;;;;;;;;;;143731;607;46010;-87
2021/10/02 10:41:28;;;;;;;8.18;4.85;;;;;;;;;;143736;607;46018;-85
2021/10/02 10:43:56;;;;;;;10.75;5.60;;;;;;;;;;143736;603;46010;-86
2021/10/02 10:46:23;;;;;;;12.90;5.32;;;;;;;;;;143731;588;47018;-87
2021/10/02 10:48:50;;;;;;;11.55;5.35;;;;;;;;;;143735;578;46011;-87
2021/10/02 10:51:22;;;;;;;9.02;6.03;;;;;;;;;;143734;567;46018;-86
2021/10/02 10:53:53;;;;;;;9.07;5.60;;;;;;;;;;143737;569;46010;-87
2021/10/02 10:56:43;;;;;;;9.98;5.00;;;;;;;;;;143732;608;46020;-87
2021/10/02 10:59:12;;;;;;;10.18;4.70;;;;;;;;;;143732;600;46010;-85
2021/10/02 11:01:40;;;;;;;8.02;4.05;;;;;;;;;;143733;593;47018;-85
2021/10/02 11:04:29;;;;;;;11.63;4.53;;;;;;;;;;143736;690;46013;-85
2021/10/02 11:06:59;;;;;;;10.52;4.10;;;;;;;;;;143739;631;46012;-86
2021/10/02 11:09:42;;;;;;;7.35;4.70;;;;;;;;;;143736;569;45921;-85
2021/10/02 11:12:13;;;;;;;;;;;;;;;;;;143740;983;47019;-85
2021/10/02 11:15:09;;;;;;;13.25;5.60;;;;;;;;;;143749;587;46048;-85
2021/10/02 11:17:44;;;;;;;11.68;4.97;;;;;;;;;;143729;569;47020;-85
2021/10/02 11:20:32;;;;;;;10.70;4.43;;;;;;;;;;143733;671;46920;-84
2021/10/02 11:23:35;;;;;;;5.93;4.50;;;;;;;;;;143734;569;47018;-85
2021/10/02 11:26:23;;;;;;;17.65;5.25;;;;;;;;;;143733;628;46013;-85
2021/10/02 11:29:20;;;;;;;8.60;5.18;;;;;;;;;;143732;574;46021;-87
2021/10/02 11:31:50;;;;;;;14.10;5.65;;;;;;;;;;143732;568;46012;-85
2021/10/02 11:34:23;;;;;;;11.20;5.07;;;;;;;;;;143732;621;47018;-84
2021/10/02 11:36:56;;;;;;;9.40;4.40;;;;;;;;;;143735;644;46012;-84
2021/10/02 11:39:31;;;;;;;12.88;5.10;;;;;;;;;;143736;564;47020;-85
2021/10/02 11:42:11;;;;;;;9.48;4.30;;;;;;;;;;143732;581;46023;-85
2021/10/02 11:44:49;;;;;;;10.60;5.15;;;;;;;;;;143736;581;46014;-84
2021/10/02 11:47:50;;;;;;;12.43;5.43;;;;;;;;;;143736;565;46012;-86
2021/10/02 11:50:36;;;;;;;10.55;4.37;;;;;;;;;;143732;586;47021;-87
2021/10/02 11:53:29;;;;;;;10.98;5.57;;;;;;;;;;143732;590;46012;-86
2021/10/02 11:56:10;;;;;;;8.25;5.25;;;;;;;;;;143733;589;46019;-84
2021/10/02 11:58:42;;;;;;;9.20;5.37;;;;;;;;;;143736;581;46012;-86
2021/10/02 12:01:21;;;;;;;10.18;6.10;;;;;;;;;;143734;592;46018;-87
2021/10/02 12:04:07;;;;;;;7.95;5.37;;;;;;;;;;143734;564;46023;-85
2021/10/02 12:06:39;;;;;;;10.63;4.85;;;;;;;;;;143735;619;46018;-87
2021/10/02 12:09:30;;;;;;;9.93;5.10;;;;;;;;;;143734;595;46026;-87
2021/10/02 12:11:58;;;;;;;11.80;4.87;;;;;;;;;;143734;633;47019;-85
2021/10/02 12:14:32;;;;;;;13.48;4.85;;;;;;;;;;143735;580;46012;-85
2021/10/02 12:17:08;;;;;;;9.88;5.22;;;;;;;;;;143734;650;47018;-87
2021/10/02 12:19:45;;;;;;;;;;;;;;;;;;;;;
2021/10/02 12:22:14;;;;;;;9.15;5.65;;;;;;;;;;143733;564;46014;-85
2021/10/02 12:24:41;;;;;;;8.65;4.57;;;;;;;;;;143734;578;46041;-84
2021/10/02 12:27:15;;;;;;;5.80;4.32;;;;;;;;;;143735;580;46019;-85
2021/10/02 12:29:48;;;;;;;16.55;5.43;;;;;;;;;;143735;565;46020;-85
2021/10/02 12:32:19;;;;;;;9.40;5.85;;;;;;;;;;143733;588;47020;-85
2021/10/02 12:35:00;;;;;;;9.70;5.20;;;;;;;;;;143733;620;46023;-85
2021/10/02 12:37:34;;;;;;;8.13;5.37;;;;;;;;;;143734;575;46018;-86
2021/10/02 12:40:13;;;;;;;14.32;6.47;;;;;;;;;;143736;619;46013;-86
2021/10/02 12:42:53;;;;;;;9.25;5.87;;;;;;;;;;143737;658;47021;-86
2021/10/02 12:45:29;;;;;;;8.80;5.87;;;;;;;;;;143737;616;45918;-86
2021/10/02 12:48:14;;;;;;;8.20;5.28;;;;;;;;;;143736;574;46019;-87
2021/10/02 12:50:42;;;;;;;12.75;6.43;;;;;;;;;;143739;652;46012;-88
2021/10/02 12:53:19;;;;;;;6.47;4.95;;;;;;;;;;143735;632;47020;-85
2021/10/02 12:55:47;;;;;;;6.78;6.07;;;;;;;;;;143737;651;46013;-85
2021/10/02 12:58:16;;;;;;;9.30;5.50;;;;;;;;;;143734;580;47018;-88
2021/10/02 13:00:45;;;;;;;16.67;6.07;;;;;;;;;;143737;632;46020;-87
2021/10/02 13:03:15;;;;;;;12.82;5.95;;;;;;;;;;143733;648;46020;-87
2021/10/02 13:05:51;;;;;;;6.03;5.40;;;;;;;;;;143734;694;46012;-87
2021/10/02 13:08:24;;;;;;;7.62;5.43;;;;;;;;;;143737;582;46018;-87
2021/10/02 13:10:51;;;;;;;7.20;5.40;;;;;;;;;;143739;606;46022;-86
2021/10/02 13:13:19;;;;;;;9.93;5.90;;;;;;;;;;143733;681;47018;-84
2021/10/02 13:15:57;;;;;;;7.70;5.93;;;;;;;;;;143734;638;46012;-83
2021/10/02 13:18:30;;;;;;;10.25;6.70;;;;;;;;;;143735;631;46019;-85
2021/10/02 13:21:03;;;;;;;6.37;4.18;;;;;;;;;;143735;614;46012;-86
2021/10/02 13:23:40;;;;;;;12.95;5.62;;;;;;;;;;143735;565;46020;-84
2021/10/02 13:26:12;;;;;;;7.93;6.30;;;;;;;;;;143734;569;46012;-86
2021/10/02 13:28:57;;;;;;;9.45;5.10;;;;;;;;;;143735;776;46018;-85
2021/10/02 13:31:32;;;;;;;9.15;5.12;;;;;;;;;;143736;649;46013;-85
2021/10/02 13:34:07;;;;;;;7.12;6.37;;;;;;;;;;143734;697;46019;-85
2021/10/02 13:36:38;;;;;;;7.62;5.25;;;;;;;;;;143733;635;46012;-85
2021/10/02 13:39:19;;;;;;;12.30;5.82;;;;;;;;;;143735;613;46018;-86
2021/10/02 13:41:50;;;;;;;10.15;5.55;;;;;;;;;;143734;647;47022;-84
2021/10/02 13:44:33;;;;;;;5.43;4.87;;;;;;;;;;143733;650;47020;-84
2021/10/02 13:47:02;;;;;;;7.97;5.32;;;;;;;;;;143733;581;46013;-85
2021/10/02 13:49:30;;;;;;;10.40;5.30;;;;;;;;;;143733;599;46019;-85
2021/10/02 13:52:00;;;;;;;7.53;4.90;;;;;;;;;;143737;569;46012;-85
2021/10/02 13:54:26;;;;;;;9.80;5.00;;;;;;;;;;143735;663;46029;-85
2021/10/02 13:57:06;;;;;;;6.35;4.30;;;;;;;;;;143733;631;47023;-85
2021/10/02 13:59:40;;;;;;;5.82;4.68;;;;;;;;;;143735;648;47018;-86
2021/10/02 14:02:24;;;;;;;9.13;4.85;;;;;;;;;;143737;596;46023;-86
2021/10/02 14:04:51;;;;;;;8.85;5.78;;;;;;;;;;143732;596;47021;-84
2021/10/02 14:07:18;;;;;;;7.68;5.18;;;;;;;;;;143736;571;46013;-86
2021/10/02 14:09:45;;;;;;;9.43;5.40;;;;;;;;;;143734;599;47018;-85
2021/10/02 14:12:13;;;;;;;8.07;5.43;;;;;;;;;;143736;601;46012;-86
2021/10/02 14:14:50;;;;;;;7.20;5.28;;;;;;;;;;143732;621;47020;-86
2021/10/02 14:17:19;;;;;;;7.47;5.93;;;;;;;;;;143734;686;46012;-86
2021/10/02 14:19:46;;;;;;;12.07;6.32;;;;;;;;;;143736;619;46018;-85
2021/10/02 14:22:15;;;;;;;10.00;5.62;;;;;;;;;;143736;601;46012;-85
2021/10/02 14:24:42;;;;;;;9.18;5.60;;;;;;;;;;143735;567;46020;-87
2021/10/02 14:27:09;;;;;;;12.27;5.32;;;;;;;;;;143736;656;46012;-86
2021/10/02 14:29:37;;;;;;;7.25;5.68;;;;;;;;;;143730;645;47018;-85
2021/10/02 14:32:04;;;;;;;7.18;5.78;;;;;;;;;;143736;668;46013;-86
2021/10/02 14:34:33;;;;;;;6.30;4.97;;;;;;;;;;143736;565;46021;-85
2021/10/02 14:37:00;;;;;;;8.93;5.45;;;;;;;;;;143735;593;47022;-86
2021/10/02 14:39:27;;;;;;;8.90;5.60;;;;;;;;;;143732;576;47019;-86
2021/10/02 14:41:55;;;;;;;14.20;5.60;;;;;;;;;;143736;573;46020;-87
2021/10/02 14:44:22;;;;;;;16.98;8.20;;;;;;;;;;143733;623;47020;-84
2021/10/02 14:46:49;;;;;;;9.18;5.93;;;;;;;;;;143735;691;45489;-87
2021/10/02 14:49:16;;;;;;;5.20;4.40;;;;;;;;;;143734;662;46023;-85
2021/10/02 14:51:51;;;;;;;7.20;5.43;;;;;;;;;;143736;592;47022;-85
2021/10/02 14:54:23;;;;;;;7.32;5.40;;;;;;;;;;143732;647;47020;-86
2021/10/02 14:56:51;;;;;;;7.07;5.62;;;;;;;;;;143734;565;46022;-87
2021/10/02 14:59:19;;;;;;;9.38;6.03;;;;;;;;;;143733;657;47018;-86
2021/10/02 15:01:49;;;;;;;7.03;5.47;;;;;;;;;;143736;609;46023;-88
2021/10/02 15:04:16;;;;;;;16.25;7.30;;;;;;;;;;143736;584;46042;-87
2021/10/02 15:06:47;;;;;;;9.23;5.57;;;;;;;;;;143734;589;46012;-86
2021/10/02 15:09:14;;;;;;;7.25;5.70;;;;;;;;;;143736;586;46019;-86
2021/10/02 15:11:42;;;;;;;8.70;5.53;;;;;;;;;;143737;573;46012;-85
2021/10/02 15:14:09;;;;;;;6.80;5.28;;;;;;;;;;143734;564;47018;-85
2021/10/02 15:16:37;;;;;;;10.65;5.78;;;;;;;;;;143732;585;46919;-84
2021/10/02 15:19:04;;;;;;;6.10;4.80;;;;;;;;;;143731;607;47018;-86
2021/10/02 15:22:03;;;;;;;6.22;4.87;;;;;;;;;;143735;652;47022;-86
2021/10/02 15:24:42;;;;;;;6.32;4.97;;;;;;;;;;143735;564;46020;-85
2021/10/02 15:27:14;;;;;;;8.63;5.37;;;;;;;;;;143734;564;46919;-85
2021/10/02 15:29:46;;;;;;;5.37;4.45;;;;;;;;;;143736;578;47018;-85
2021/10/02 15:32:14;;;;;;;6.93;4.73;;;;;;;;;;143737;588;46016;-86
2021/10/02 15:34:42;;;;;;;10.15;4.80;;;;;;;;;;143734;800;46014;-86
2021/10/02 15:37:12;;;;;;;8.10;5.40;;;;;;;;;;143733;569;47022;-83
2021/10/02 15:39:41;;;;;;;7.72;5.47;;;;;;;;;;143734;597;47019;-85
2021/10/02 15:42:10;;;;;;;9.90;5.18;;;;;;;;;;143735;577;46012;-85
2021/10/02 15:44:39;;;;;;;13.90;4.85;;;;;;;;;;143731;757;47014;-84
2021/10/02 15:47:07;;;;;;;6.53;4.75;;;;;;;;;;143734;670;46012;-85
2021/10/02 15:49:39;;;;;;;8.32;4.53;;;;;;;;;;143736;652;46034;-85
2021/10/02 15:52:09;;;;;;;6.72;4.28;;;;;;;;;;143737;569;46012;-85
2021/10/02 15:54:36;;;;;;;4.90;4.10;;;;;;;;;;143733;593;47019;-85
2021/10/02 15:57:09;;;;;;;7.57;4.22;;;;;;;;;;143731;564;47012;-85
2021/10/02 15:59:40;;;;;;;;;;;;;;;;;;143738;983;47018;-85
2021/10/02 16:02:27;;;;;;;9.85;4.53;;;;;;;;;;143744;600;47023;-86
2021/10/02 16:05:07;;;;;;;8.27;5.03;;;;;;;;;;143731;573;49018;-85
2021/10/02 16:07:36;;;;;;;8.18;4.75;;;;;;;;;;143732;565;46010;-83
2021/10/02 16:10:03;;;;;;;7.40;4.70;;;;;;;;;;143731;643;48016;-84
2021/10/02 16:12:38;;;;;;;12.07;5.47;;;;;;;;;;143735;580;46020;-85